createdAt,value
2019-01-29T00:00:32.071Z,98518.77
2019-01-29T00:03:37.435Z,98523.05
2019-01-29T00:06:42.701Z,98520.44
2019-01-29T00:09:47.953Z,98522.75
2019-01-29T00:12:54.973Z,98516.80
2019-01-29T00:16:01.807Z,98520.33
2019-01-29T00:19:06.998Z,98533.69
2019-01-29T00:22:12.066Z,98530.22
2019-01-29T00:25:17.294Z,98532.98
2019-01-29T00:28:22.444Z,98545.45
2019-01-29T00:31:28.434Z,98550.44
2019-01-29T00:34:33.644Z,98550.81
2019-01-29T00:37:38.775Z,98555.50
2019-01-29T00:40:43.922Z,98555.45
2019-01-29T00:43:52.211Z,98557.41
2019-01-29T00:46:57.436Z,98561.33
2019-01-29T00:50:02.595Z,98574.11
2019-01-29T00:53:07.811Z,98568.42
2019-01-29T00:56:12.887Z,98572.12
2019-01-29T00:59:18.066Z,98576.37
2019-01-29T01:02:23.215Z,98570.64
2019-01-29T01:05:28.480Z,98581.86
2019-01-29T01:08:33.574Z,98580.94
2019-01-29T01:11:38.721Z,98599.42
2019-01-29T01:14:48.694Z,98592.66
2019-01-29T01:17:53.795Z,98599.42
2019-01-29T01:20:58.922Z,98610.81
2019-01-29T01:24:04.145Z,98616.08
2019-01-29T01:27:09.296Z,98617.20
2019-01-29T01:30:16.883Z,98630.31
2019-01-29T01:33:22.006Z,98628.48
2019-01-29T01:36:27.166Z,98625.95
2019-01-29T01:39:33.163Z,98630.18
2019-01-29T01:42:38.307Z,98639.66
2019-01-29T01:45:43.423Z,98637.37
2019-01-29T01:48:48.639Z,98645.81
2019-01-29T01:51:53.867Z,98638.05
2019-01-29T01:54:59.068Z,98636.94
2019-01-29T01:58:04.166Z,98641.34
2019-01-29T02:01:09.405Z,98640.14
2019-01-29T02:04:14.515Z,98646.52
2019-01-29T02:07:19.754Z,98656.14
2019-01-29T02:10:27.556Z,98653.53
2019-01-29T02:13:32.773Z,98645.30
2019-01-29T02:16:37.933Z,98656.67
2019-01-29T02:19:43.116Z,98657.63
2019-01-29T02:22:48.233Z,98661.00
2019-01-29T02:25:53.373Z,98665.61
2019-01-29T02:28:58.524Z,98663.92
2019-01-29T02:32:04.806Z,98669.06
2019-01-29T02:35:10.245Z,98673.91
2019-01-29T02:38:15.438Z,98690.53
2019-01-29T02:41:20.598Z,98685.44
2019-01-29T02:44:25.855Z,98681.87
2019-01-29T02:47:30.970Z,98678.00
2019-01-29T02:50:36.170Z,98674.55
2019-01-29T02:53:41.400Z,98673.92
2019-01-29T02:56:46.566Z,98680.91
2019-01-29T02:59:51.783Z,98685.77
2019-01-29T03:02:56.966Z,98677.42
2019-01-29T03:06:02.117Z,98677.80
2019-01-29T03:09:09.365Z,98688.83
2019-01-29T03:12:14.506Z,98688.80
2019-01-29T03:15:22.661Z,98697.88
2019-01-29T03:18:28.801Z,98701.70
2019-01-29T03:21:33.939Z,98701.80
2019-01-29T03:24:39.126Z,98705.84
2019-01-29T03:27:44.285Z,98710.70
2019-01-29T03:30:49.429Z,98711.77
2019-01-29T03:33:54.580Z,98714.75
2019-01-29T03:36:59.658Z,98715.47
2019-01-29T03:40:06.287Z,98718.73
2019-01-29T03:43:11.400Z,98717.27
2019-01-29T03:46:16.520Z,98719.83
2019-01-29T03:49:29.557Z,98721.84
2019-01-29T03:52:34.853Z,98725.52
2019-01-29T03:55:40.145Z,98721.43
2019-01-29T03:58:45.192Z,98722.66
2019-01-29T04:01:50.313Z,98728.37
2019-01-29T04:04:55.560Z,98731.88
2019-01-29T04:08:00.680Z,98736.54
2019-01-29T04:11:05.971Z,98734.06
2019-01-29T04:14:11.055Z,98748.55
2019-01-29T04:17:16.223Z,98749.48
2019-01-29T04:20:21.631Z,98747.73
2019-01-29T04:23:26.881Z,98763.94
2019-01-29T04:26:32.381Z,98765.08
2019-01-29T04:29:37.518Z,98766.87
2019-01-29T04:32:42.731Z,98762.33
2019-01-29T04:35:47.869Z,98754.80
2019-01-29T04:38:53.028Z,98764.48
2019-01-29T04:41:58.222Z,98760.13
2019-01-29T04:45:03.904Z,98765.42
2019-01-29T04:48:09.155Z,98767.36
2019-01-29T04:51:15.327Z,98764.42
2019-01-29T04:54:20.458Z,98768.08
2019-01-29T04:57:25.668Z,98781.02
2019-01-29T05:00:32.369Z,98777.62
2019-01-29T05:03:37.521Z,98780.27
2019-01-29T05:06:42.654Z,98794.66
2019-01-29T05:09:47.759Z,98787.34
2019-01-29T05:12:52.955Z,98803.00
2019-01-29T05:15:58.068Z,98795.03
2019-01-29T05:19:03.218Z,98789.63
2019-01-29T05:22:08.296Z,98794.50
2019-01-29T05:25:13.576Z,98799.89
2019-01-29T05:28:21.014Z,98797.06
2019-01-29T05:31:26.138Z,98804.61
2019-01-29T05:34:31.247Z,98796.05
2019-01-29T05:37:36.411Z,98801.23
2019-01-29T05:40:41.643Z,98802.06
2019-01-29T05:43:46.756Z,98804.77
2019-01-29T05:46:51.924Z,98809.12
2019-01-29T05:49:57.003Z,98810.81
2019-01-29T05:53:02.141Z,98804.84
2019-01-29T05:56:07.375Z,98813.94
2019-01-29T05:59:12.526Z,98813.61
2019-01-29T06:02:17.701Z,98815.33
2019-01-29T06:05:22.877Z,98811.25
2019-01-29T06:08:28.053Z,98813.70
2019-01-29T06:11:33.176Z,98816.62
2019-01-29T06:14:38.308Z,98816.69
2019-01-29T06:17:43.467Z,98821.94
2019-01-29T06:20:48.655Z,98819.72
2019-01-29T06:23:53.933Z,98821.66
2019-01-29T06:26:59.099Z,98829.48
2019-01-29T06:30:05.232Z,98829.78
2019-01-29T06:33:10.472Z,98839.00
2019-01-29T06:36:15.588Z,98837.31
2019-01-29T06:39:20.800Z,98840.55
2019-01-29T06:42:25.974Z,98843.64
2019-01-29T06:45:31.038Z,98842.67
2019-01-29T06:48:36.127Z,98851.45
2019-01-29T06:51:41.272Z,98848.67
2019-01-29T06:54:46.399Z,98852.78
2019-01-29T06:57:55.625Z,98848.67
2019-01-29T07:00:58.653Z,98854.11
2019-01-29T07:04:03.773Z,98855.17
2019-01-29T07:07:08.908Z,98854.47
2019-01-29T07:10:15.202Z,98861.72
2019-01-29T07:13:20.355Z,98859.87
2019-01-29T07:16:44.482Z,98864.38
2019-01-29T07:19:52.246Z,98868.34
2019-01-29T07:22:57.434Z,98871.73
2019-01-29T07:26:02.548Z,98868.45
2019-01-29T07:29:07.723Z,98872.27
2019-01-29T07:32:12.949Z,98873.61
2019-01-29T07:35:18.049Z,98875.73
2019-01-29T07:38:23.156Z,98875.95
2019-01-29T07:41:28.380Z,98882.16
2019-01-29T07:44:33.572Z,98889.45
2019-01-29T07:47:38.663Z,98889.34
2019-01-29T07:50:43.846Z,98891.20
2019-01-29T07:53:49.062Z,98890.94
2019-01-29T07:56:54.249Z,98897.63
2019-01-29T07:59:59.422Z,98896.73
2019-01-29T08:03:04.763Z,98901.34
2019-01-29T08:06:11.186Z,98905.25
2019-01-29T08:09:16.341Z,98905.01
2019-01-29T08:12:21.452Z,98908.44
2019-01-29T08:15:26.722Z,98908.58
2019-01-29T08:18:31.892Z,98910.73
2019-01-29T08:21:37.110Z,98904.20
2019-01-29T08:24:42.199Z,98905.46
2019-01-29T08:27:47.445Z,98914.92
2019-01-29T08:30:52.601Z,98911.68
2019-01-29T08:33:57.784Z,98915.19
2019-01-29T08:37:06.512Z,98919.32
2019-01-29T08:40:11.883Z,98920.41
2019-01-29T08:43:17.050Z,98920.16
2019-01-29T08:46:23.450Z,98922.99
2019-01-29T08:49:28.700Z,98919.89
2019-01-29T08:52:33.882Z,98919.77
2019-01-29T08:55:38.997Z,98926.34
2019-01-29T08:58:44.197Z,98924.47
2019-01-29T09:01:49.356Z,98927.05
2019-01-29T09:04:54.472Z,98918.41
2019-01-29T09:07:59.589Z,98924.22
2019-01-29T09:11:04.846Z,98919.58
2019-01-29T09:14:10.078Z,98920.50
2019-01-29T09:17:15.275Z,98921.32
2019-01-29T09:20:20.757Z,98924.45
2019-01-29T09:23:25.933Z,98917.05
2019-01-29T09:26:31.164Z,98923.84
2019-01-29T09:29:36.450Z,98913.23
2019-01-29T09:32:41.535Z,98910.87
2019-01-29T09:35:46.684Z,98910.67
2019-01-29T09:38:51.892Z,98906.05
2019-01-29T09:41:57.161Z,98908.59
2019-01-29T09:45:02.285Z,98903.61
2019-01-29T09:48:07.700Z,98899.09
2019-01-29T09:51:12.852Z,98896.81
2019-01-29T09:54:18.050Z,98896.35
2019-01-29T09:57:23.196Z,98895.66
2019-01-29T10:00:33.312Z,98891.23
2019-01-29T10:03:38.596Z,98891.02
2019-01-29T10:06:43.685Z,98894.62
2019-01-29T10:09:48.835Z,98888.72
2019-01-29T10:12:54.014Z,98885.44
2019-01-29T10:15:59.303Z,98882.14
2019-01-29T10:19:04.671Z,98877.75
2019-01-29T10:22:09.889Z,98867.74
2019-01-29T10:25:15.655Z,98867.18
2019-01-29T10:28:20.805Z,98867.78
2019-01-29T10:31:25.969Z,98857.94
2019-01-29T10:34:31.095Z,98860.55
2019-01-29T10:37:36.212Z,98858.77
2019-01-29T10:40:41.373Z,98854.09
2019-01-29T10:43:46.557Z,98842.28
2019-01-29T10:46:51.674Z,98842.16
2019-01-29T10:49:56.772Z,98833.27
2019-01-29T10:53:02.001Z,98834.41
2019-01-29T10:56:07.134Z,98827.37
2019-01-29T10:59:13.260Z,98824.00
2019-01-29T11:02:18.394Z,98825.34
2019-01-29T11:05:23.743Z,98826.20
2019-01-29T11:08:28.938Z,98824.52
2019-01-29T11:11:34.040Z,98813.31
2019-01-29T11:14:39.201Z,98807.83
2019-01-29T11:17:44.363Z,98803.06
2019-01-29T11:20:49.661Z,98805.09
2019-01-29T11:23:54.826Z,98794.91
2019-01-29T11:26:59.999Z,98792.23
2019-01-29T11:30:05.814Z,98796.33
2019-01-29T11:33:11.033Z,98788.16
2019-01-29T11:36:16.320Z,98787.61
2019-01-29T11:39:21.447Z,98782.06
2019-01-29T11:42:26.602Z,98776.97
2019-01-29T11:45:52.097Z,98778.14
2019-01-29T11:48:57.334Z,98776.30
2019-01-29T11:52:02.447Z,98772.97
2019-01-29T11:55:08.078Z,98773.91
2019-01-29T11:58:13.289Z,98759.45
2019-01-29T12:01:20.915Z,98756.09
2019-01-29T12:04:26.089Z,98757.13
2019-01-29T12:07:31.178Z,98757.91
2019-01-29T12:10:36.285Z,98751.92
2019-01-29T12:13:41.539Z,98754.87
2019-01-29T12:16:46.677Z,98751.73
2019-01-29T12:19:51.858Z,98745.02
2019-01-29T12:22:56.998Z,98746.70
2019-01-29T12:26:02.208Z,98734.99
2019-01-29T12:29:07.343Z,98727.26
2019-01-29T12:32:12.484Z,98720.70
2019-01-29T12:35:17.643Z,98720.37
2019-01-29T12:38:22.772Z,98707.14
2019-01-29T12:41:27.915Z,98707.80
2019-01-29T12:44:33.032Z,98700.80
2019-01-29T12:47:38.188Z,98698.58
2019-01-29T12:50:48.769Z,98690.94
2019-01-29T12:53:53.918Z,98681.80
2019-01-29T12:56:59.061Z,98679.88
2019-01-29T13:00:04.681Z,98687.55
2019-01-29T13:03:10.012Z,98683.33
2019-01-29T13:06:15.153Z,98691.38
2019-01-29T13:09:20.309Z,98680.70
2019-01-29T13:12:25.502Z,98685.84
2019-01-29T13:15:30.704Z,98673.52
2019-01-29T13:18:35.797Z,98671.05
2019-01-29T13:21:40.962Z,98663.46
2019-01-29T13:24:46.127Z,98666.66
2019-01-29T13:27:51.310Z,98660.78
2019-01-29T13:30:56.440Z,98661.72
2019-01-29T13:34:01.662Z,98662.13
2019-01-29T13:37:06.858Z,98652.86
2019-01-29T13:40:12.050Z,98646.49
2019-01-29T13:43:17.211Z,98641.38
2019-01-29T13:46:22.583Z,98646.42
2019-01-29T13:49:28.964Z,98637.50
2019-01-29T13:52:34.094Z,98628.45
2019-01-29T13:55:39.299Z,98635.61
2019-01-29T13:58:44.448Z,98629.58
2019-01-29T14:01:49.577Z,98632.77
2019-01-29T14:04:54.832Z,98632.25
2019-01-29T14:07:59.939Z,98628.16
2019-01-29T14:11:05.231Z,98629.06
2019-01-29T14:14:10.487Z,98631.11
2019-01-29T14:17:15.680Z,98624.34
2019-01-29T14:20:20.797Z,98616.41
2019-01-29T14:23:26.011Z,98613.34
2019-01-29T14:26:31.130Z,98613.86
2019-01-29T14:29:36.347Z,98608.98
2019-01-29T14:32:41.511Z,98609.80
2019-01-29T14:35:46.834Z,98600.54
2019-01-29T14:39:51.060Z,98599.73
2019-01-29T14:42:56.259Z,98596.50
2019-01-29T14:46:01.427Z,98591.11
2019-01-29T14:49:06.655Z,98586.39
2019-01-29T14:52:11.868Z,98584.55
2019-01-29T14:55:16.930Z,98580.33
2019-01-29T14:58:22.042Z,98573.03
2019-01-29T15:01:27.748Z,98579.44
2019-01-29T15:04:32.861Z,98578.55
2019-01-29T15:07:38.100Z,98573.75
2019-01-29T15:10:43.327Z,98571.25
2019-01-29T15:13:48.497Z,98567.07
2019-01-29T15:17:11.271Z,98567.36
2019-01-29T15:20:16.453Z,98560.07
2019-01-29T15:23:21.649Z,98553.06
2019-01-29T15:26:26.941Z,98551.73
2019-01-29T15:29:32.122Z,98545.55
2019-01-29T15:32:37.302Z,98542.73
2019-01-29T15:35:42.485Z,98555.47
2019-01-29T15:38:47.690Z,98554.50
2019-01-29T15:41:52.825Z,98554.23
2019-01-29T15:44:58.959Z,98545.72
2019-01-29T15:48:04.592Z,98550.98
2019-01-29T15:51:09.771Z,98544.27
2019-01-29T15:54:14.907Z,98540.34
2019-01-29T15:57:20.088Z,98538.23
2019-01-29T16:00:27.603Z,98543.56
2019-01-29T16:03:32.722Z,98536.96
2019-01-29T16:06:37.918Z,98536.08
2019-01-29T16:09:43.104Z,98534.95
2019-01-29T16:12:48.263Z,98532.21
2019-01-29T16:15:53.374Z,98534.36
2019-01-29T16:18:58.584Z,98535.32
2019-01-29T16:22:03.749Z,98532.61
2019-01-29T16:25:11.082Z,98533.20
2019-01-29T16:28:16.241Z,98525.86
2019-01-29T16:31:21.418Z,98528.27
2019-01-29T16:34:26.627Z,98528.88
2019-01-29T16:37:31.837Z,98521.17
2019-01-29T16:40:38.305Z,98511.58
2019-01-29T16:43:43.593Z,98521.07
2019-01-29T16:46:48.909Z,98515.19
2019-01-29T16:49:54.034Z,98501.58
2019-01-29T16:52:59.496Z,98503.88
2019-01-29T16:56:04.937Z,98500.52
2019-01-29T16:59:10.259Z,98496.85
2019-01-29T17:02:15.591Z,98494.03
2019-01-29T17:05:20.837Z,98485.44
2019-01-29T17:08:26.107Z,98483.43
2019-01-29T17:11:31.269Z,98472.72
2019-01-29T17:14:36.585Z,98469.92
2019-01-29T17:17:41.836Z,98466.01
2019-01-29T17:20:47.220Z,98460.48
2019-01-29T17:23:52.443Z,98455.58
2019-01-29T17:26:57.628Z,98458.59
2019-01-29T17:30:02.699Z,98459.14
2019-01-29T17:33:10.250Z,98452.50
2019-01-29T17:36:16.353Z,98453.97
2019-01-29T17:39:21.539Z,98451.33
2019-01-29T17:42:26.688Z,98451.46
2019-01-29T17:45:34.140Z,98455.34
2019-01-29T17:48:39.334Z,98455.39
2019-01-29T17:51:44.589Z,98450.09
2019-01-29T17:54:49.729Z,98437.70
2019-01-29T17:57:54.939Z,98438.79
2019-01-29T18:01:01.604Z,98421.00
2019-01-29T18:04:06.750Z,98426.27
2019-01-29T18:07:11.918Z,98415.50
2019-01-29T18:10:17.285Z,98416.94
2019-01-29T18:13:22.425Z,98412.64
2019-01-29T18:16:27.584Z,98406.05
2019-01-29T18:19:32.719Z,98403.09
2019-01-29T18:22:39.040Z,98398.52
2019-01-29T18:25:44.199Z,98397.89
2019-01-29T18:28:49.420Z,98391.13
2019-01-29T18:31:54.619Z,98383.20
2019-01-29T18:34:59.861Z,98380.45
2019-01-29T18:38:05.184Z,98374.54
2019-01-29T18:41:10.391Z,98370.93
2019-01-29T18:44:15.616Z,98360.40
2019-01-29T18:47:20.803Z,98362.03
2019-01-29T18:50:26.044Z,98353.80
2019-01-29T18:53:31.224Z,98354.96
2019-01-29T18:56:36.443Z,98348.59
2019-01-29T18:59:41.641Z,98339.94
2019-01-29T19:02:47.024Z,98334.11
2019-01-29T19:05:52.181Z,98329.36
2019-01-29T19:08:57.387Z,98326.57
2019-01-29T19:12:02.604Z,98319.85
2019-01-29T19:15:10.465Z,98318.14
2019-01-29T19:18:15.664Z,98321.55
2019-01-29T19:21:20.823Z,98311.88
2019-01-29T19:24:26.167Z,98303.33
2019-01-29T19:27:31.393Z,98297.17
2019-01-29T19:30:36.712Z,98289.41
2019-01-29T19:33:41.968Z,98288.27
2019-01-29T19:36:47.155Z,98282.61
2019-01-29T19:39:52.380Z,98283.91
2019-01-29T19:42:57.618Z,98282.27
2019-01-29T19:46:02.858Z,98277.41
2019-01-29T19:49:08.074Z,98272.53
2019-01-29T19:52:13.363Z,98274.88
2019-01-29T19:55:18.907Z,98268.23
2019-01-29T19:58:32.018Z,98271.97
2019-01-29T20:01:30.988Z,98269.05
2019-01-29T20:04:36.130Z,98268.61
2019-01-29T20:07:41.338Z,98264.98
2019-01-29T20:10:46.450Z,98268.28
2019-01-29T20:13:51.701Z,98266.13
2019-01-29T20:16:56.949Z,98263.70
2019-01-29T20:20:02.238Z,98258.02
2019-01-29T20:23:08.570Z,98252.30
2019-01-29T20:26:13.896Z,98256.28
2019-01-29T20:29:19.107Z,98254.83
2019-01-29T20:32:24.537Z,98245.25
2019-01-29T20:35:30.870Z,98251.39
2019-01-29T20:38:40.761Z,98249.55
2019-01-29T20:41:46.171Z,98248.27
2019-01-29T20:44:51.421Z,98247.94
2019-01-29T20:47:56.610Z,98231.28
2019-01-29T20:51:01.808Z,98233.28
2019-01-29T20:54:07.131Z,98229.48
2019-01-29T20:57:12.298Z,98232.44
2019-01-29T21:00:20.172Z,98223.86
2019-01-29T21:03:25.519Z,98218.95
2019-01-29T21:06:30.769Z,98212.02
2019-01-29T21:09:35.943Z,98204.45
2019-01-29T21:12:41.123Z,98198.20
2019-01-29T21:15:46.333Z,98191.77
2019-01-29T21:18:51.488Z,98185.78
2019-01-29T21:21:56.670Z,98182.02
2019-01-29T21:25:01.882Z,98181.85
2019-01-29T21:28:07.350Z,98173.45
2019-01-29T21:31:12.487Z,98169.62
2019-01-29T21:34:17.673Z,98166.13
2019-01-29T21:37:22.839Z,98160.39
2019-01-29T21:40:28.244Z,98157.31
2019-01-29T21:43:33.464Z,98159.26
2019-01-29T21:46:38.740Z,98150.80
2019-01-29T21:49:43.867Z,98140.41
2019-01-29T21:52:49.059Z,98143.52
2019-01-29T21:55:54.232Z,98142.27
2019-01-29T21:58:59.388Z,98147.31
2019-01-29T22:02:04.799Z,98137.69
2019-01-29T22:05:11.631Z,98146.05
2019-01-29T22:08:16.800Z,98137.66
2019-01-29T22:11:22.067Z,98136.81
2019-01-29T22:14:27.262Z,98137.64
2019-01-29T22:17:32.403Z,98135.34
2019-01-29T22:20:37.619Z,98127.09
2019-01-29T22:23:42.788Z,98134.59
2019-01-29T22:26:48.085Z,98127.20
2019-01-29T22:29:53.313Z,98124.23
2019-01-29T22:32:58.482Z,98128.43
2019-01-29T22:36:03.645Z,98119.52
2019-01-29T22:39:09.765Z,98112.41
2019-01-29T22:42:14.905Z,98102.13
2019-01-29T22:45:20.318Z,98102.25
2019-01-29T22:48:25.498Z,98102.79
2019-01-29T22:51:30.828Z,98089.45
2019-01-29T22:54:35.949Z,98092.91
2019-01-29T22:57:41.177Z,98086.97
2019-01-29T23:00:59.813Z,98085.34
2019-01-29T23:04:32.044Z,98070.22
2019-01-29T23:07:38.968Z,98062.62
2019-01-29T23:10:44.115Z,98056.08
2019-01-29T23:13:49.330Z,98052.67
2019-01-29T23:16:54.544Z,98053.31
2019-01-29T23:19:59.642Z,98054.25
2019-01-29T23:23:04.826Z,98045.97
2019-01-29T23:26:09.985Z,98039.45
2019-01-29T23:29:17.151Z,98033.91
2019-01-29T23:32:22.217Z,98033.27
2019-01-29T23:35:27.332Z,98029.67
2019-01-29T23:38:32.502Z,98029.88
2019-01-29T23:41:37.724Z,98024.71
2019-01-29T23:44:42.890Z,98015.55
2019-01-29T23:47:49.728Z,98011.95
2019-01-29T23:50:54.988Z,98011.31
2019-01-29T23:54:00.138Z,98005.02
2019-01-29T23:57:05.434Z,98004.39
